Portada
METAR-TAF:

METAR-TAF

Aeropuertos :

Aeropuerto de Pamplona

Pamplona, España

latitud: 42-46N, longitud: 001-38W, altitud: 459 m

Observación

El informe se hizo hace 29 minutos, a las 13:30 UTC
Viento 2 kt del oeste
Temperatura 13°C
Humedad 41%
Presión 1032 hPa
Visibilidad 10 km o más
sin nubes por debajo de 1500 m y sin presencia de cumulonimbus.

METAR: LEPP 031330Z 27002KT CAVOK 13/M00 Q1032

Hora: 14:59 (13:59 UTC)

Pronóstico

El informe se hizo hace 5 horas y 59 minutos, a las 08:00 UTC
Pronóstico válido del 03 a las 09 UTC al 04 a las 09 UTC
Viento 9 kt del noroeste
Visibilidad 10 km o más
sin nubes por debajo de 1500 m y sin presencia de cumulonimbus.
Probabilidad 30% :
Temporalmente
del 04 a las 00 UTC al 04 a las 08 UTC
Visibilidad: 3000 m
Cielo nuboso a una altura de 1000 ft
neblina

TAF: LEPP 030800Z 0309/0409 32009KT CAVOK TX12/0313Z TNM03/0407Z PROB30 TEMPO 0400/0408 3000 BR BKN010

Observaciones y pronósticos meteorológicos de más de 4000 aeropuertos (mensajes METAR y TAF).

Los puntos amarillos y rojos representan las estaciones disponibles.

Ponga el ratón en el punto deseado para ver el nombre de la estación.

Haga clic para ver las observaciones y los pronósticos meteorológicos.

Para cambiar el mapa : haga clic en los botones verdes con una cruz de color negro para hacer un zoom, en el botón verde con un guión para alejar o en las flechas verdes para mapas adyacentes.


METAR-TAF: